sensor_id;sensor_type;location;lat;lon;timestamp;temperature;humidity
30150;DHT22;16962;48.646;9.026;2023-07-08T00:02:19;18.80;1.00
30150;DHT22;16962;48.646;9.026;2023-07-08T00:05:44;18.70;1.00
30150;DHT22;16962;48.646;9.026;2023-07-08T00:08:39;18.50;1.00
30150;DHT22;16962;48.646;9.026;2023-07-08T00:11:31;18.40;1.00
30150;DHT22;16962;48.646;9.026;2023-07-08T00:14:21;18.20;1.00
30150;DHT22;16962;48.646;9.026;2023-07-08T00:17:11;18.20;1.00
30150;DHT22;16962;48.646;9.026;2023-07-08T00:23:54;18.00;1.00
30150;DHT22;16962;48.646;9.026;2023-07-08T00:26:54;17.90;1.00
30150;DHT22;16962;48.646;9.026;2023-07-08T00:30:07;17.80;1.00
30150;DHT22;16962;48.646;9.026;2023-07-08T00:36:37;17.60;1.00
30150;DHT22;16962;48.646;9.026;2023-07-08T00:39:25;17.60;1.00
30150;DHT22;16962;48.646;9.026;2023-07-08T00:42:22;17.50;1.00
30150;DHT22;16962;48.646;9.026;2023-07-08T00:48:30;17.40;1.00
30150;DHT22;16962;48.646;9.026;2023-07-08T00:51:27;17.30;1.00
30150;DHT22;16962;48.646;9.026;2023-07-08T00:54:20;17.30;1.00
30150;DHT22;16962;48.646;9.026;2023-07-08T00:57:31;17.30;1.00
30150;DHT22;16962;48.646;9.026;2023-07-08T01:00:52;17.20;1.00
30150;DHT22;16962;48.646;9.026;2023-07-08T01:04:02;17.20;1.00
30150;DHT22;16962;48.646;9.026;2023-07-08T01:07:04;17.20;1.00
30150;DHT22;16962;48.646;9.026;2023-07-08T01:10:11;17.10;1.00
30150;DHT22;16962;48.646;9.026;2023-07-08T01:13:15;17.10;1.00
30150;DHT22;16962;48.646;9.026;2023-07-08T01:16:14;17.00;1.00
30150;DHT22;16962;48.646;9.026;2023-07-08T01:19:21;17.00;1.00
30150;DHT22;16962;48.646;9.026;2023-07-08T01:22:35;17.00;1.00
30150;DHT22;16962;48.646;9.026;2023-07-08T01:25:33;16.90;1.00
30150;DHT22;16962;48.646;9.026;2023-07-08T01:28:48;17.00;1.00
30150;DHT22;16962;48.646;9.026;2023-07-08T01:31:57;16.90;1.00
30150;DHT22;16962;48.646;9.026;2023-07-08T01:34:51;16.70;1.00
30150;DHT22;16962;48.646;9.026;2023-07-08T01:37:56;16.70;1.00
30150;DHT22;16962;48.646;9.026;2023-07-08T01:40:55;16.80;1.00
30150;DHT22;16962;48.646;9.026;2023-07-08T01:43:44;16.80;1.00
30150;DHT22;16962;48.646;9.026;2023-07-08T01:46:34;16.70;1.00
30150;DHT22;16962;48.646;9.026;2023-07-08T01:49:30;16.80;1.00
30150;DHT22;16962;48.646;9.026;2023-07-08T01:52:27;16.70;1.00
30150;DHT22;16962;48.646;9.026;2023-07-08T01:55:24;16.70;1.00
30150;DHT22;16962;48.646;9.026;2023-07-08T01:58:41;16.70;1.00
30150;DHT22;16962;48.646;9.026;2023-07-08T02:01:30;16.70;1.00
30150;DHT22;16962;48.646;9.026;2023-07-08T02:04:24;16.80;1.00
30150;DHT22;16962;48.646;9.026;2023-07-08T02:07:11;16.90;1.00
30150;DHT22;16962;48.646;9.026;2023-07-08T02:10:19;16.80;1.00
30150;DHT22;16962;48.646;9.026;2023-07-08T02:13:31;16.80;1.00
30150;DHT22;16962;48.646;9.026;2023-07-08T02:16:32;16.70;1.00
30150;DHT22;16962;48.646;9.026;2023-07-08T02:19:38;16.70;1.00
30150;DHT22;16962;48.646;9.026;2023-07-08T02:22:34;16.60;1.00
30150;DHT22;16962;48.646;9.026;2023-07-08T02:25:53;16.70;1.00
30150;DHT22;16962;48.646;9.026;2023-07-08T02:28:42;16.70;1.00
30150;DHT22;16962;48.646;9.026;2023-07-08T02:31:30;16.60;1.00
30150;DHT22;16962;48.646;9.026;2023-07-08T02:34:21;16.70;1.00
30150;DHT22;16962;48.646;9.026;2023-07-08T02:37:30;16.70;1.00
30150;DHT22;16962;48.646;9.026;2023-07-08T02:40:18;16.90;1.00
30150;DHT22;16962;48.646;9.026;2023-07-08T02:43:05;17.20;1.00
30150;DHT22;16962;48.646;9.026;2023-07-08T02:46:04;17.60;1.00
30150;DHT22;16962;48.646;9.026;2023-07-08T02:48:55;17.70;1.00
30150;DHT22;16962;48.646;9.026;2023-07-08T02:51:49;17.80;1.00
30150;DHT22;16962;48.646;9.026;2023-07-08T02:54:54;17.70;1.00
30150;DHT22;16962;48.646;9.026;2023-07-08T02:58:16;17.70;1.00
30150;DHT22;16962;48.646;9.026;2023-07-08T03:01:22;17.50;1.00
30150;DHT22;16962;48.646;9.026;2023-07-08T03:04:11;17.40;1.00
30150;DHT22;16962;48.646;9.026;2023-07-08T03:07:27;17.30;1.00
30150;DHT22;16962;48.646;9.026;2023-07-08T03:10:39;17.10;1.00
30150;DHT22;16962;48.646;9.026;2023-07-08T03:13:56;17.10;1.00
30150;DHT22;16962;48.646;9.026;2023-07-08T03:17:08;17.00;1.00
30150;DHT22;16962;48.646;9.026;2023-07-08T03:20:21;17.00;1.00
30150;DHT22;16962;48.646;9.026;2023-07-08T03:27:04;16.90;1.00
30150;DHT22;16962;48.646;9.026;2023-07-08T03:30:12;16.80;1.00
30150;DHT22;16962;48.646;9.026;2023-07-08T03:33:07;16.70;1.00
30150;DHT22;16962;48.646;9.026;2023-07-08T03:36:03;16.70;1.00
30150;DHT22;16962;48.646;9.026;2023-07-08T03:38:56;16.70;1.00
30150;DHT22;16962;48.646;9.026;2023-07-08T03:41:46;16.60;1.00
30150;DHT22;16962;48.646;9.026;2023-07-08T03:44:43;16.60;1.00
30150;DHT22;16962;48.646;9.026;2023-07-08T03:48:21;16.60;1.00
30150;DHT22;16962;48.646;9.026;2023-07-08T03:52:07;16.60;1.00
30150;DHT22;16962;48.646;9.026;2023-07-08T03:59:45;16.70;1.00
30150;DHT22;16962;48.646;9.026;2023-07-08T04:07:05;17.10;1.00
30150;DHT22;16962;48.646;9.026;2023-07-08T04:10:40;17.30;1.00
30150;DHT22;16962;48.646;9.026;2023-07-08T04:18:18;17.70;1.00
30150;DHT22;16962;48.646;9.026;2023-07-08T04:21:35;17.90;1.00
30150;DHT22;16962;48.646;9.026;2023-07-08T04:24:57;18.10;1.00
30150;DHT22;16962;48.646;9.026;2023-07-08T04:27:44;18.00;1.00
30150;DHT22;16962;48.646;9.026;2023-07-08T04:30:34;17.80;1.00
30150;DHT22;16962;48.646;9.026;2023-07-08T04:33:33;17.70;1.00
30150;DHT22;16962;48.646;9.026;2023-07-08T04:37:00;17.80;1.00
30150;DHT22;16962;48.646;9.026;2023-07-08T04:39:59;18.00;1.00
30150;DHT22;16962;48.646;9.026;2023-07-08T04:52:11;18.60;1.00
30150;DHT22;16962;48.646;9.026;2023-07-08T04:55:36;18.80;1.00
30150;DHT22;16962;48.646;9.026;2023-07-08T04:58:50;18.90;1.00
30150;DHT22;16962;48.646;9.026;2023-07-08T05:02:17;18.80;1.00
30150;DHT22;16962;48.646;9.026;2023-07-08T05:05:08;18.80;1.00
30150;DHT22;16962;48.646;9.026;2023-07-08T05:07:55;18.80;1.00
30150;DHT22;16962;48.646;9.026;2023-07-08T05:10:59;18.80;1.00
30150;DHT22;16962;48.646;9.026;2023-07-08T05:13:54;19.00;1.00
30150;DHT22;16962;48.646;9.026;2023-07-08T05:16:44;19.10;1.00
30150;DHT22;16962;48.646;9.026;2023-07-08T05:19:40;19.30;1.00
30150;DHT22;16962;48.646;9.026;2023-07-08T05:22:38;19.50;1.00
30150;DHT22;16962;48.646;9.026;2023-07-08T05:25:44;19.70;1.00
30150;DHT22;16962;48.646;9.026;2023-07-08T05:28:35;19.90;1.00
30150;DHT22;16962;48.646;9.026;2023-07-08T05:31:24;20.10;1.00
30150;DHT22;16962;48.646;9.026;2023-07-08T05:34:28;20.40;1.00
30150;DHT22;16962;48.646;9.026;2023-07-08T05:37:15;20.70;1.00
30150;DHT22;16962;48.646;9.026;2023-07-08T05:40:04;20.70;1.00
30150;DHT22;16962;48.646;9.026;2023-07-08T05:42:51;20.80;1.00
30150;DHT22;16962;48.646;9.026;2023-07-08T05:45:39;20.80;1.00
30150;DHT22;16962;48.646;9.026;2023-07-08T05:48:26;20.80;1.00
30150;DHT22;16962;48.646;9.026;2023-07-08T05:51:14;20.90;1.00
30150;DHT22;16962;48.646;9.026;2023-07-08T05:54:06;21.10;1.00
30150;DHT22;16962;48.646;9.026;2023-07-08T05:56:53;21.20;1.00
30150;DHT22;16962;48.646;9.026;2023-07-08T05:59:43;21.30;1.00
30150;DHT22;16962;48.646;9.026;2023-07-08T06:02:30;21.30;1.00
30150;DHT22;16962;48.646;9.026;2023-07-08T06:05:18;21.40;1.00
30150;DHT22;16962;48.646;9.026;2023-07-08T06:08:06;21.40;1.00
30150;DHT22;16962;48.646;9.026;2023-07-08T06:10:59;21.50;1.00
30150;DHT22;16962;48.646;9.026;2023-07-08T06:13:48;21.50;1.00
30150;DHT22;16962;48.646;9.026;2023-07-08T06:16:39;21.50;1.00
30150;DHT22;16962;48.646;9.026;2023-07-08T06:19:28;21.40;1.00
30150;DHT22;16962;48.646;9.026;2023-07-08T06:22:16;21.50;1.00
30150;DHT22;16962;48.646;9.026;2023-07-08T06:25:24;21.50;1.00
30150;DHT22;16962;48.646;9.026;2023-07-08T06:28:13;21.50;1.00
30150;DHT22;16962;48.646;9.026;2023-07-08T06:31:00;21.50;1.00
30150;DHT22;16962;48.646;9.026;2023-07-08T06:33:48;21.50;1.00
30150;DHT22;16962;48.646;9.026;2023-07-08T06:36:38;21.40;1.00
30150;DHT22;16962;48.646;9.026;2023-07-08T06:39:25;21.40;1.00
30150;DHT22;16962;48.646;9.026;2023-07-08T06:42:13;21.40;1.00
30150;DHT22;16962;48.646;9.026;2023-07-08T06:45:00;21.50;1.00
30150;DHT22;16962;48.646;9.026;2023-07-08T06:47:47;21.80;1.00
30150;DHT22;16962;48.646;9.026;2023-07-08T06:50:35;22.00;1.00
30150;DHT22;16962;48.646;9.026;2023-07-08T06:53:22;22.10;1.00
30150;DHT22;16962;48.646;9.026;2023-07-08T06:56:10;22.20;1.00
30150;DHT22;16962;48.646;9.026;2023-07-08T06:58:57;22.20;1.00
30150;DHT22;16962;48.646;9.026;2023-07-08T07:01:44;22.10;1.00
30150;DHT22;16962;48.646;9.026;2023-07-08T07:04:31;22.10;1.00
30150;DHT22;16962;48.646;9.026;2023-07-08T07:07:22;22.20;1.00
30150;DHT22;16962;48.646;9.026;2023-07-08T07:10:10;22.50;1.00
30150;DHT22;16962;48.646;9.026;2023-07-08T07:12:58;22.70;1.00
30150;DHT22;16962;48.646;9.026;2023-07-08T07:15:47;22.90;1.00
30150;DHT22;16962;48.646;9.026;2023-07-08T07:18:38;23.10;1.00
30150;DHT22;16962;48.646;9.026;2023-07-08T07:21:27;23.20;1.00
30150;DHT22;16962;48.646;9.026;2023-07-08T07:24:14;23.40;1.00
30150;DHT22;16962;48.646;9.026;2023-07-08T07:27:02;23.30;1.00
30150;DHT22;16962;48.646;9.026;2023-07-08T07:29:53;23.40;1.00
30150;DHT22;16962;48.646;9.026;2023-07-08T07:32:41;23.50;1.00
30150;DHT22;16962;48.646;9.026;2023-07-08T07:35:29;23.80;1.00
30150;DHT22;16962;48.646;9.026;2023-07-08T07:38:18;24.00;1.00
30150;DHT22;16962;48.646;9.026;2023-07-08T07:41:08;24.30;1.00
30150;DHT22;16962;48.646;9.026;2023-07-08T07:43:57;24.50;1.00
30150;DHT22;16962;48.646;9.026;2023-07-08T07:46:54;24.40;1.00
30150;DHT22;16962;48.646;9.026;2023-07-08T07:58:45;24.50;1.00
30150;DHT22;16962;48.646;9.026;2023-07-08T08:06:29;24.00;1.00
30150;DHT22;16962;48.646;9.026;2023-07-08T08:13:11;24.00;1.00
30150;DHT22;16962;48.646;9.026;2023-07-08T08:19:35;24.70;1.00
30150;DHT22;16962;48.646;9.026;2023-07-08T08:22:58;25.30;1.00
30150;DHT22;16962;48.646;9.026;2023-07-08T08:30:31;27.00;1.00
30150;DHT22;16962;48.646;9.026;2023-07-08T08:33:30;28.40;1.00
30150;DHT22;16962;48.646;9.026;2023-07-08T08:36:19;29.00;1.00
30150;DHT22;16962;48.646;9.026;2023-07-08T08:39:11;28.30;1.00
30150;DHT22;16962;48.646;9.026;2023-07-08T08:41:59;28.20;1.00
30150;DHT22;16962;48.646;9.026;2023-07-08T08:44:46;28.50;1.00
30150;DHT22;16962;48.646;9.026;2023-07-08T08:47:45;29.50;1.00
30150;DHT22;16962;48.646;9.026;2023-07-08T08:50:58;30.10;1.00
30150;DHT22;16962;48.646;9.026;2023-07-08T08:53:53;29.50;1.00
30150;DHT22;16962;48.646;9.026;2023-07-08T09:03:04;26.50;1.00
30150;DHT22;16962;48.646;9.026;2023-07-08T09:05:59;26.20;1.00
30150;DHT22;16962;48.646;9.026;2023-07-08T09:08:50;26.20;1.00
30150;DHT22;16962;48.646;9.026;2023-07-08T09:14:42;27.60;1.00
30150;DHT22;16962;48.646;9.026;2023-07-08T09:17:32;28.40;1.00
30150;DHT22;16962;48.646;9.026;2023-07-08T09:20:26;28.30;1.00
30150;DHT22;16962;48.646;9.026;2023-07-08T09:23:35;28.80;1.00
30150;DHT22;16962;48.646;9.026;2023-07-08T09:26:27;29.10;1.00
30150;DHT22;16962;48.646;9.026;2023-07-08T09:29:15;28.90;1.00
30150;DHT22;16962;48.646;9.026;2023-07-08T09:32:24;28.60;99.90
30150;DHT22;16962;48.646;9.026;2023-07-08T09:35:41;28.80;99.90
30150;DHT22;16962;48.646;9.026;2023-07-08T09:38:36;29.60;1.00
30150;DHT22;16962;48.646;9.026;2023-07-08T09:41:36;29.50;99.90
30150;DHT22;16962;48.646;9.026;2023-07-08T09:44:30;28.60;1.00
30150;DHT22;16962;48.646;9.026;2023-07-08T09:47:27;28.30;1.00
30150;DHT22;16962;48.646;9.026;2023-07-08T09:50:29;28.10;1.00
30150;DHT22;16962;48.646;9.026;2023-07-08T09:53:18;28.00;1.00
30150;DHT22;16962;48.646;9.026;2023-07-08T09:56:08;28.10;1.00
30150;DHT22;16962;48.646;9.026;2023-07-08T09:58:58;28.50;1.00
30150;DHT22;16962;48.646;9.026;2023-07-08T10:01:47;28.30;1.00
30150;DHT22;16962;48.646;9.026;2023-07-08T10:04:37;28.60;1.00
30150;DHT22;16962;48.646;9.026;2023-07-08T10:07:28;28.50;1.00
30150;DHT22;16962;48.646;9.026;2023-07-08T10:10:18;29.30;1.00
30150;DHT22;16962;48.646;9.026;2023-07-08T10:13:42;29.90;99.90
30150;DHT22;16962;48.646;9.026;2023-07-08T10:16:33;31.10;99.90
30150;DHT22;16962;48.646;9.026;2023-07-08T10:19:21;31.10;99.90
30150;DHT22;16962;48.646;9.026;2023-07-08T10:22:37;30.60;99.90
30150;DHT22;16962;48.646;9.026;2023-07-08T10:25:47;30.40;99.90
30150;DHT22;16962;48.646;9.026;2023-07-08T10:32:18;32.60;99.90
30150;DHT22;16962;48.646;9.026;2023-07-08T10:35:28;32.00;99.90
30150;DHT22;16962;48.646;9.026;2023-07-08T10:51:10;35.30;99.90
30150;DHT22;16962;48.646;9.026;2023-07-08T11:03:36;36.20;99.90
30150;DHT22;16962;48.646;9.026;2023-07-08T11:06:44;36.00;99.90
30150;DHT22;16962;48.646;9.026;2023-07-08T11:09:48;35.60;99.90
30150;DHT22;16962;48.646;9.026;2023-07-08T11:12:48;36.10;99.90
30150;DHT22;16962;48.646;9.026;2023-07-08T11:16:55;36.40;99.90
30150;DHT22;16962;48.646;9.026;2023-07-08T11:19:37;35.40;99.90
30150;DHT22;16962;48.646;9.026;2023-07-08T11:22:26;33.50;99.90
30150;DHT22;16962;48.646;9.026;2023-07-08T11:25:20;34.20;99.90
30150;DHT22;16962;48.646;9.026;2023-07-08T11:28:26;35.70;99.90
30150;DHT22;16962;48.646;9.026;2023-07-08T11:31:28;37.20;99.90
30150;DHT22;16962;48.646;9.026;2023-07-08T11:34:18;37.70;99.90
30150;DHT22;16962;48.646;9.026;2023-07-08T11:37:07;39.10;99.90
30150;DHT22;16962;48.646;9.026;2023-07-08T11:42:52;39.70;99.90
30150;DHT22;16962;48.646;9.026;2023-07-08T11:45:49;39.40;99.90
30150;DHT22;16962;48.646;9.026;2023-07-08T11:48:47;39.80;99.90
30150;DHT22;16962;48.646;9.026;2023-07-08T11:51:38;38.80;99.90
30150;DHT22;16962;48.646;9.026;2023-07-08T11:54:30;38.10;99.90
30150;DHT22;16962;48.646;9.026;2023-07-08T11:57:28;36.60;99.90
30150;DHT22;16962;48.646;9.026;2023-07-08T12:01:22;36.00;99.90
30150;DHT22;16962;48.646;9.026;2023-07-08T12:04:24;36.50;99.90
30150;DHT22;16962;48.646;9.026;2023-07-08T12:07:19;37.20;99.90
30150;DHT22;16962;48.646;9.026;2023-07-08T12:10:17;37.60;99.90
30150;DHT22;16962;48.646;9.026;2023-07-08T12:13:13;38.90;99.90
30150;DHT22;16962;48.646;9.026;2023-07-08T12:16:01;40.30;99.90
30150;DHT22;16962;48.646;9.026;2023-07-08T12:18:52;41.60;99.90
30150;DHT22;16962;48.646;9.026;2023-07-08T12:21:43;40.80;99.90
30150;DHT22;16962;48.646;9.026;2023-07-08T12:24:31;38.80;99.90
30150;DHT22;16962;48.646;9.026;2023-07-08T12:27:18;37.20;99.90
30150;DHT22;16962;48.646;9.026;2023-07-08T12:30:07;35.50;99.90
30150;DHT22;16962;48.646;9.026;2023-07-08T12:32:58;35.00;99.90
30150;DHT22;16962;48.646;9.026;2023-07-08T12:35:47;35.90;99.90
30150;DHT22;16962;48.646;9.026;2023-07-08T12:38:42;36.90;99.90
30150;DHT22;16962;48.646;9.026;2023-07-08T12:41:36;35.80;99.90
30150;DHT22;16962;48.646;9.026;2023-07-08T12:44:26;34.70;99.90
30150;DHT22;16962;48.646;9.026;2023-07-08T12:47:13;35.10;99.90
30150;DHT22;16962;48.646;9.026;2023-07-08T12:50:00;36.20;99.90
30150;DHT22;16962;48.646;9.026;2023-07-08T12:52:48;36.30;99.90
30150;DHT22;16962;48.646;9.026;2023-07-08T12:55:38;35.60;99.90
30150;DHT22;16962;48.646;9.026;2023-07-08T12:58:33;36.30;99.90
30150;DHT22;16962;48.646;9.026;2023-07-08T13:01:24;36.70;99.90
30150;DHT22;16962;48.646;9.026;2023-07-08T13:04:12;36.60;99.90
30150;DHT22;16962;48.646;9.026;2023-07-08T13:07:00;37.30;99.90
30150;DHT22;16962;48.646;9.026;2023-07-08T13:09:49;37.90;99.90
30150;DHT22;16962;48.646;9.026;2023-07-08T13:12:40;38.40;99.90
30150;DHT22;16962;48.646;9.026;2023-07-08T13:15:32;39.60;99.90
30150;DHT22;16962;48.646;9.026;2023-07-08T13:18:36;37.70;99.90
30150;DHT22;16962;48.646;9.026;2023-07-08T13:21:24;36.40;99.90
30150;DHT22;16962;48.646;9.026;2023-07-08T13:24:15;36.30;99.90
30150;DHT22;16962;48.646;9.026;2023-07-08T13:30:20;38.90;99.90
30150;DHT22;16962;48.646;9.026;2023-07-08T13:33:15;39.70;99.90
30150;DHT22;16962;48.646;9.026;2023-07-08T13:38:33;40.50;99.90
30150;DHT22;16962;48.646;9.026;2023-07-08T13:41:22;40.10;99.90
30150;DHT22;16962;48.646;9.026;2023-07-08T13:44:10;40.10;99.90
30150;DHT22;16962;48.646;9.026;2023-07-08T13:47:00;39.50;99.90
30150;DHT22;16962;48.646;9.026;2023-07-08T13:49:56;39.60;99.90
30150;DHT22;16962;48.646;9.026;2023-07-08T13:52:55;39.60;99.90
30150;DHT22;16962;48.646;9.026;2023-07-08T13:55:42;38.80;99.90
30150;DHT22;16962;48.646;9.026;2023-07-08T13:58:34;38.90;99.90
30150;DHT22;16962;48.646;9.026;2023-07-08T14:01:30;39.20;99.90
30150;DHT22;16962;48.646;9.026;2023-07-08T14:04:28;39.60;99.90
30150;DHT22;16962;48.646;9.026;2023-07-08T14:07:37;40.20;99.90
30150;DHT22;16962;48.646;9.026;2023-07-08T14:10:30;40.20;99.90
30150;DHT22;16962;48.646;9.026;2023-07-08T14:13:45;40.60;99.90
30150;DHT22;16962;48.646;9.026;2023-07-08T14:16:36;39.10;99.90
30150;DHT22;16962;48.646;9.026;2023-07-08T14:19:27;38.10;99.90
30150;DHT22;16962;48.646;9.026;2023-07-08T14:22:25;37.40;99.90
30150;DHT22;16962;48.646;9.026;2023-07-08T14:25:15;35.60;99.90
30150;DHT22;16962;48.646;9.026;2023-07-08T14:28:06;33.80;99.90
30150;DHT22;16962;48.646;9.026;2023-07-08T14:30:54;32.70;99.90
30150;DHT22;16962;48.646;9.026;2023-07-08T14:33:41;31.90;99.90
30150;DHT22;16962;48.646;9.026;2023-07-08T14:36:32;31.20;99.90
30150;DHT22;16962;48.646;9.026;2023-07-08T14:39:20;31.10;99.90
30150;DHT22;16962;48.646;9.026;2023-07-08T14:42:15;31.20;99.90
30150;DHT22;16962;48.646;9.026;2023-07-08T14:45:07;32.00;99.90
30150;DHT22;16962;48.646;9.026;2023-07-08T14:47:55;31.90;99.90
30150;DHT22;16962;48.646;9.026;2023-07-08T14:50:43;32.10;99.90
30150;DHT22;16962;48.646;9.026;2023-07-08T14:53:30;33.30;99.90
30150;DHT22;16962;48.646;9.026;2023-07-08T14:56:20;34.20;99.90
30150;DHT22;16962;48.646;9.026;2023-07-08T14:59:31;34.20;99.90
30150;DHT22;16962;48.646;9.026;2023-07-08T15:02:23;34.80;99.90
30150;DHT22;16962;48.646;9.026;2023-07-08T15:05:22;35.70;99.90
30150;DHT22;16962;48.646;9.026;2023-07-08T15:08:11;35.90;99.90
30150;DHT22;16962;48.646;9.026;2023-07-08T15:10:58;36.40;99.90
30150;DHT22;16962;48.646;9.026;2023-07-08T15:13:49;37.10;99.90
30150;DHT22;16962;48.646;9.026;2023-07-08T15:16:37;37.40;99.90
30150;DHT22;16962;48.646;9.026;2023-07-08T15:19:25;37.60;99.90
30150;DHT22;16962;48.646;9.026;2023-07-08T15:22:13;37.40;99.90
30150;DHT22;16962;48.646;9.026;2023-07-08T15:25:01;37.70;99.90
30150;DHT22;16962;48.646;9.026;2023-07-08T15:27:52;37.50;99.90
30150;DHT22;16962;48.646;9.026;2023-07-08T15:31:02;37.00;99.90
30150;DHT22;16962;48.646;9.026;2023-07-08T15:34:07;36.40;99.90
30150;DHT22;16962;48.646;9.026;2023-07-08T15:37:07;36.40;99.90
30150;DHT22;16962;48.646;9.026;2023-07-08T15:39:59;37.30;99.90
30150;DHT22;16962;48.646;9.026;2023-07-08T15:42:53;35.40;99.90
30150;DHT22;16962;48.646;9.026;2023-07-08T15:45:43;33.60;99.90
30150;DHT22;16962;48.646;9.026;2023-07-08T15:48:39;32.50;99.90
30150;DHT22;16962;48.646;9.026;2023-07-08T15:51:26;33.20;99.90
30150;DHT22;16962;48.646;9.026;2023-07-08T15:54:17;33.10;99.90
30150;DHT22;16962;48.646;9.026;2023-07-08T15:57:12;33.80;99.90
30150;DHT22;16962;48.646;9.026;2023-07-08T16:00:02;34.00;99.90
30150;DHT22;16962;48.646;9.026;2023-07-08T16:02:52;33.40;99.90
30150;DHT22;16962;48.646;9.026;2023-07-08T16:05:41;32.70;99.90
30150;DHT22;16962;48.646;9.026;2023-07-08T16:12:42;32.20;99.90
30150;DHT22;16962;48.646;9.026;2023-07-08T16:23:31;30.80;99.90
30150;DHT22;16962;48.646;9.026;2023-07-08T16:26:32;30.40;99.90
30150;DHT22;16962;48.646;9.026;2023-07-08T16:33:24;30.20;99.90
30150;DHT22;16962;48.646;9.026;2023-07-08T16:40:27;30.00;99.90
30150;DHT22;16962;48.646;9.026;2023-07-08T16:44:07;29.90;99.90
30150;DHT22;16962;48.646;9.026;2023-07-08T17:04:00;29.90;99.90
30150;DHT22;16962;48.646;9.026;2023-07-08T17:06:50;29.90;99.90
30150;DHT22;16962;48.646;9.026;2023-07-08T17:09:41;29.80;99.90
30150;DHT22;16962;48.646;9.026;2023-07-08T17:12:37;29.60;99.90
30150;DHT22;16962;48.646;9.026;2023-07-08T17:24:02;29.60;99.90
30150;DHT22;16962;48.646;9.026;2023-07-08T19:27:31;25.80;99.90
30150;DHT22;16962;48.646;9.026;2023-07-08T20:00:43;24.70;99.90
30150;DHT22;16962;48.646;9.026;2023-07-08T20:04:43;24.60;99.90
30150;DHT22;16962;48.646;9.026;2023-07-08T20:07:42;24.50;99.90
30150;DHT22;16962;48.646;9.026;2023-07-08T20:10:39;24.50;99.90
30150;DHT22;16962;48.646;9.026;2023-07-08T20:14:19;24.40;99.90
30150;DHT22;16962;48.646;9.026;2023-07-08T20:26:56;24.10;1.00
30150;DHT22;16962;48.646;9.026;2023-07-08T21:27:50;21.90;1.00
30150;DHT22;16962;48.646;9.026;2023-07-08T21:30:37;21.70;1.00
30150;DHT22;16962;48.646;9.026;2023-07-08T21:33:27;21.70;1.00
30150;DHT22;16962;48.646;9.026;2023-07-08T21:39:22;21.50;1.00
30150;DHT22;16962;48.646;9.026;2023-07-08T21:42:13;21.50;1.00
30150;DHT22;16962;48.646;9.026;2023-07-08T21:45:00;21.40;1.00
30150;DHT22;16962;48.646;9.026;2023-07-08T21:47:53;21.40;1.00
30150;DHT22;16962;48.646;9.026;2023-07-08T21:50:53;21.30;1.00
30150;DHT22;16962;48.646;9.026;2023-07-08T21:53:44;21.20;1.00
30150;DHT22;16962;48.646;9.026;2023-07-08T21:56:34;21.10;1.00
30150;DHT22;16962;48.646;9.026;2023-07-08T21:59:21;21.20;1.00
30150;DHT22;16962;48.646;9.026;2023-07-08T22:02:15;21.10;1.00
30150;DHT22;16962;48.646;9.026;2023-07-08T22:05:04;21.00;1.00
30150;DHT22;16962;48.646;9.026;2023-07-08T22:07:52;21.00;1.00
30150;DHT22;16962;48.646;9.026;2023-07-08T22:10:44;21.10;1.00
30150;DHT22;16962;48.646;9.026;2023-07-08T22:13:36;21.20;1.00
30150;DHT22;16962;48.646;9.026;2023-07-08T22:16:29;21.20;1.00
30150;DHT22;16962;48.646;9.026;2023-07-08T22:19:17;21.10;1.00
30150;DHT22;16962;48.646;9.026;2023-07-08T22:22:06;21.00;1.00
30150;DHT22;16962;48.646;9.026;2023-07-08T22:24:54;20.80;1.00
30150;DHT22;16962;48.646;9.026;2023-07-08T22:27:42;20.80;1.00
30150;DHT22;16962;48.646;9.026;2023-07-08T22:30:29;20.70;1.00
30150;DHT22;16962;48.646;9.026;2023-07-08T22:33:19;20.60;1.00
30150;DHT22;16962;48.646;9.026;2023-07-08T22:36:07;20.40;1.00
30150;DHT22;16962;48.646;9.026;2023-07-08T22:39:00;20.30;1.00
30150;DHT22;16962;48.646;9.026;2023-07-08T22:41:53;20.30;1.00
30150;DHT22;16962;48.646;9.026;2023-07-08T22:44:40;20.30;1.00
30150;DHT22;16962;48.646;9.026;2023-07-08T22:47:29;20.20;1.00
30150;DHT22;16962;48.646;9.026;2023-07-08T22:50:18;20.20;1.00
30150;DHT22;16962;48.646;9.026;2023-07-08T22:53:14;20.30;1.00
30150;DHT22;16962;48.646;9.026;2023-07-08T22:56:05;20.40;1.00
30150;DHT22;16962;48.646;9.026;2023-07-08T22:58:52;20.60;1.00
30150;DHT22;16962;48.646;9.026;2023-07-08T23:01:40;20.80;1.00
30150;DHT22;16962;48.646;9.026;2023-07-08T23:04:28;20.80;1.00
30150;DHT22;16962;48.646;9.026;2023-07-08T23:07:16;20.90;1.00
30150;DHT22;16962;48.646;9.026;2023-07-08T23:10:06;20.90;1.00
30150;DHT22;16962;48.646;9.026;2023-07-08T23:12:54;20.90;1.00
30150;DHT22;16962;48.646;9.026;2023-07-08T23:15:41;20.80;1.00
30150;DHT22;16962;48.646;9.026;2023-07-08T23:18:34;20.80;1.00
30150;DHT22;16962;48.646;9.026;2023-07-08T23:21:27;20.80;1.00
30150;DHT22;16962;48.646;9.026;2023-07-08T23:24:17;20.80;1.00
30150;DHT22;16962;48.646;9.026;2023-07-08T23:27:08;20.80;1.00
30150;DHT22;16962;48.646;9.026;2023-07-08T23:29:55;20.80;1.00
30150;DHT22;16962;48.646;9.026;2023-07-08T23:32:43;20.80;1.00
30150;DHT22;16962;48.646;9.026;2023-07-08T23:35:32;20.70;1.00
30150;DHT22;16962;48.646;9.026;2023-07-08T23:38:19;20.60;1.00
30150;DHT22;16962;48.646;9.026;2023-07-08T23:41:10;20.70;1.00
30150;DHT22;16962;48.646;9.026;2023-07-08T23:43:58;20.70;1.00
30150;DHT22;16962;48.646;9.026;2023-07-08T23:46:48;20.80;1.00
30150;DHT22;16962;48.646;9.026;2023-07-08T23:49:39;20.70;1.00
30150;DHT22;16962;48.646;9.026;2023-07-08T23:52:27;20.70;1.00
30150;DHT22;16962;48.646;9.026;2023-07-08T23:55:15;20.60;1.00
30150;DHT22;16962;48.646;9.026;2023-07-08T23:58:03;20.50;1.00
